createdAt,value
2023-05-10T00:03:06.171Z,13.16
2023-05-10T00:06:14.777Z,13.16
2023-05-10T00:09:23.457Z,13.19
2023-05-10T00:12:33.264Z,13.05
2023-05-10T00:15:41.893Z,13.04
2023-05-10T00:18:50.343Z,12.96
2023-05-10T00:21:59.093Z,12.87
2023-05-10T00:25:09.132Z,12.85
2023-05-10T00:28:19.610Z,12.95
2023-05-10T00:31:28.116Z,13.04
2023-05-10T00:34:36.609Z,12.89
2023-05-10T00:37:45.304Z,13.03
2023-05-10T00:40:55.751Z,13.04
2023-05-10T00:44:12.107Z,13.06
2023-05-10T00:47:21.211Z,13.17
2023-05-10T00:50:30.019Z,13.02
2023-05-10T00:53:38.881Z,12.93
2023-05-10T00:56:50.024Z,12.87
2023-05-10T01:00:00.011Z,13.02
2023-05-10T01:03:08.796Z,12.99
2023-05-10T01:06:17.715Z,12.99
2023-05-10T01:09:27.336Z,12.87
2023-05-10T01:12:37.014Z,12.98
2023-05-10T01:15:48.426Z,12.93
2023-05-10T01:18:57.872Z,12.91
2023-05-10T01:22:17.993Z,12.90
2023-05-10T01:25:49.082Z,12.86
2023-05-10T01:29:35.813Z,12.81
2023-05-10T01:32:53.141Z,12.88
2023-05-10T01:36:08.037Z,12.85
2023-05-10T01:39:26.543Z,12.78
2023-05-10T01:42:42.493Z,12.67
2023-05-10T01:46:02.079Z,12.78
2023-05-10T01:49:17.436Z,12.78
2023-05-10T01:52:32.184Z,12.86
2023-05-10T01:55:47.215Z,12.80
2023-05-10T01:58:58.418Z,12.86
2023-05-10T02:02:07.996Z,12.76
2023-05-10T02:05:19.864Z,12.74
2023-05-10T02:08:30.203Z,12.71
2023-05-10T02:11:41.290Z,12.74
2023-05-10T02:14:52.470Z,12.67
2023-05-10T02:18:02.542Z,12.54
2023-05-10T02:21:14.388Z,12.66
2023-05-10T02:24:26.351Z,12.59
2023-05-10T02:27:37.379Z,12.73
2023-05-10T02:30:46.575Z,12.69
2023-05-10T02:33:57.237Z,12.76
2023-05-10T02:37:08.193Z,12.71
2023-05-10T02:40:18.919Z,12.48
2023-05-10T02:43:30.433Z,12.69
2023-05-10T02:46:39.564Z,12.58
2023-05-10T02:49:49.039Z,12.56
2023-05-10T02:53:04.124Z,12.61
2023-05-10T02:56:18.236Z,12.64
2023-05-10T02:59:27.352Z,12.63
2023-05-10T03:02:37.374Z,12.68
2023-05-10T03:05:46.116Z,12.56
2023-05-10T03:08:56.355Z,12.54
2023-05-10T03:12:13.732Z,12.43
2023-05-10T03:15:27.109Z,12.57
2023-05-10T03:18:43.907Z,12.53
2023-05-10T03:21:55.482Z,12.64
2023-05-10T03:25:09.728Z,12.61
2023-05-10T03:28:19.784Z,12.57
2023-05-10T03:31:29.834Z,12.60
2023-05-10T03:34:44.584Z,12.59
2023-05-10T03:37:53.464Z,12.56
2023-05-10T03:41:04.139Z,12.38
2023-05-10T03:44:12.685Z,12.47
2023-05-10T03:47:21.490Z,12.46
2023-05-10T03:50:30.269Z,12.52
2023-05-10T03:53:38.877Z,12.48
2023-05-10T03:56:49.364Z,12.33
2023-05-10T03:59:59.580Z,12.42
2023-05-10T04:03:08.231Z,12.33
2023-05-10T04:06:16.969Z,12.36
2023-05-10T04:09:25.537Z,12.48
2023-05-10T04:12:38.858Z,12.38
2023-05-10T04:15:48.690Z,12.58
2023-05-10T04:18:57.354Z,12.56
2023-05-10T04:22:06.141Z,12.56
2023-05-10T04:25:14.908Z,12.64
2023-05-10T04:28:24.799Z,12.63
2023-05-10T04:31:33.418Z,12.70
2023-05-10T04:34:41.863Z,12.58
2023-05-10T04:37:50.464Z,12.71
2023-05-10T04:41:07.283Z,12.67
2023-05-10T04:44:17.154Z,12.56
2023-05-10T04:47:25.633Z,12.61
2023-05-10T04:50:34.261Z,12.63
2023-05-10T04:53:46.475Z,12.73
2023-05-10T04:56:59.633Z,12.64
2023-05-10T05:00:10.959Z,12.78
2023-05-10T05:03:19.468Z,12.82
2023-05-10T05:06:28.288Z,12.79
2023-05-10T05:09:37.164Z,12.87
2023-05-10T05:12:45.786Z,12.81
2023-05-10T05:15:55.927Z,12.75
2023-05-10T05:19:04.581Z,12.84
2023-05-10T05:22:13.042Z,12.68
2023-05-10T05:25:21.579Z,12.69
2023-05-10T05:28:35.012Z,12.71
2023-05-10T05:31:44.864Z,12.58
2023-05-10T05:34:53.786Z,12.51
2023-05-10T05:38:02.303Z,12.53
2023-05-10T05:41:10.990Z,12.47
2023-05-10T05:44:19.435Z,12.40
2023-05-10T05:47:29.275Z,12.42
2023-05-10T05:50:37.828Z,12.35
2023-05-10T05:53:46.734Z,12.35
2023-05-10T05:56:57.665Z,12.29
2023-05-10T06:00:08.676Z,12.24
2023-05-10T06:03:24.241Z,12.10
2023-05-10T06:06:33.221Z,11.83
2023-05-10T06:09:41.829Z,11.57
2023-05-10T06:12:50.374Z,11.22
2023-05-10T06:15:59.789Z,11.05
2023-05-10T06:19:09.829Z,10.95
2023-05-10T06:22:18.482Z,10.94
2023-05-10T06:25:27.780Z,10.99
2023-05-10T06:28:36.389Z,11.11
2023-05-10T06:31:44.979Z,11.15
2023-05-10T06:34:54.831Z,11.34
2023-05-10T06:38:03.596Z,11.51
2023-05-10T06:41:12.627Z,11.54
2023-05-10T06:44:21.121Z,11.77
2023-05-10T06:47:29.629Z,11.94
2023-05-10T06:50:40.559Z,11.91
2023-05-10T06:53:49.678Z,11.91
2023-05-10T06:56:58.967Z,11.94
2023-05-10T07:00:10.540Z,12.18
2023-05-10T07:03:19.071Z,12.40
2023-05-10T07:06:33.258Z,12.76
2023-05-10T07:09:43.114Z,13.33
2023-05-10T07:12:52.037Z,13.84
2023-05-10T07:16:03.036Z,13.98
2023-05-10T07:19:11.937Z,14.44
2023-05-10T07:22:22.023Z,15.06
2023-05-10T07:25:30.540Z,15.08
2023-05-10T07:28:40.115Z,14.84
2023-05-10T07:31:48.319Z,15.60
2023-05-10T07:34:56.745Z,15.12
2023-05-10T07:38:06.432Z,15.30
2023-05-10T07:41:15.442Z,15.70
2023-05-10T07:44:24.131Z,15.40
2023-05-10T07:47:32.479Z,15.42
2023-05-10T07:50:40.784Z,15.19
2023-05-10T07:53:51.629Z,15.41
2023-05-10T07:57:00.731Z,15.73
2023-05-10T08:00:10.903Z,16.02
2023-05-10T08:03:22.290Z,16.14
2023-05-10T08:06:31.250Z,16.02
2023-05-10T08:09:41.278Z,15.40
2023-05-10T08:12:52.371Z,15.27
2023-05-10T08:16:01.597Z,15.25
2023-05-10T08:19:09.959Z,14.97
2023-05-10T08:22:18.676Z,14.97
2023-05-10T08:25:28.575Z,15.41
2023-05-10T08:28:37.093Z,15.07
2023-05-10T08:31:45.330Z,14.61
2023-05-10T08:34:53.554Z,14.51
2023-05-10T08:38:01.889Z,15.30
2023-05-10T08:41:13.235Z,15.21
2023-05-10T08:44:22.898Z,15.97
2023-05-10T08:47:32.658Z,16.12
2023-05-10T08:50:43.926Z,16.25
2023-05-10T08:53:52.699Z,14.55
2023-05-10T08:57:02.739Z,14.45
2023-05-10T09:00:14.126Z,14.30
2023-05-10T09:03:22.439Z,14.16
2023-05-10T09:06:31.150Z,14.35
2023-05-10T09:09:39.761Z,13.99
2023-05-10T09:12:51.163Z,13.55
2023-05-10T09:16:04.461Z,13.19
2023-05-10T09:19:22.018Z,12.92
2023-05-10T09:22:30.589Z,12.86
2023-05-10T09:25:39.697Z,12.92
2023-05-10T09:28:58.893Z,12.81
2023-05-10T09:32:07.075Z,12.81
2023-05-10T09:35:20.114Z,12.97
2023-05-10T09:38:28.562Z,12.96
2023-05-10T09:41:39.070Z,13.21
2023-05-10T09:44:48.980Z,13.24
2023-05-10T09:47:57.824Z,13.38
2023-05-10T09:51:06.006Z,13.44
2023-05-10T09:54:17.148Z,13.60
2023-05-10T09:57:27.555Z,13.58
2023-05-10T10:00:40.568Z,13.82
2023-05-10T10:03:49.038Z,14.44
2023-05-10T10:07:03.879Z,14.77
2023-05-10T10:10:13.537Z,15.04
2023-05-10T10:13:21.869Z,15.35
2023-05-10T10:16:32.773Z,15.61
2023-05-10T10:19:41.515Z,16.84
2023-05-10T10:22:51.030Z,16.88
2023-05-10T10:26:01.018Z,18.17
2023-05-10T10:29:23.587Z,17.48
2023-05-10T10:33:05.573Z,18.80
2023-05-10T10:36:18.691Z,18.10
2023-05-10T10:39:27.614Z,17.05
2023-05-10T10:42:50.839Z,16.66
2023-05-10T10:46:15.342Z,17.67
2023-05-10T10:49:25.238Z,18.65
2023-05-10T10:52:35.387Z,19.00
2023-05-10T10:55:51.052Z,18.82
2023-05-10T10:59:02.718Z,18.44
2023-05-10T11:02:10.872Z,18.77
2023-05-10T11:05:46.510Z,18.49
2023-05-10T11:08:55.626Z,18.32
2023-05-10T11:12:11.138Z,17.87
2023-05-10T11:15:19.629Z,17.63
2023-05-10T11:18:30.067Z,17.69
2023-05-10T11:21:49.350Z,17.13
2023-05-10T11:25:01.075Z,17.35
2023-05-10T11:28:09.741Z,15.42
2023-05-10T11:31:19.515Z,15.28
2023-05-10T11:34:31.257Z,14.69
2023-05-10T11:37:44.850Z,14.71
2023-05-10T11:40:55.568Z,14.36
2023-05-10T11:44:04.781Z,13.71
2023-05-10T11:47:14.466Z,12.86
2023-05-10T11:50:22.644Z,12.51
2023-05-10T11:53:34.463Z,12.46
2023-05-10T11:56:43.750Z,12.40
2023-05-10T11:59:56.621Z,12.67
2023-05-10T12:03:05.550Z,12.75
2023-05-10T12:06:13.997Z,12.42
2023-05-10T12:12:42.760Z,12.41
2023-05-10T12:15:51.061Z,12.42
2023-05-10T12:19:05.741Z,12.47
2023-05-10T12:22:14.095Z,12.49
2023-05-10T12:25:26.197Z,12.37
2023-05-10T12:28:39.402Z,12.31
2023-05-10T12:31:57.565Z,12.32
2023-05-10T12:35:07.532Z,12.16
2023-05-10T12:38:31.766Z,12.17
2023-05-10T12:41:43.601Z,12.30
2023-05-10T12:44:52.176Z,12.37
2023-05-10T12:48:00.374Z,12.26
2023-05-10T12:51:12.669Z,12.37
2023-05-10T12:54:20.842Z,12.53
2023-05-10T12:57:30.687Z,12.63
2023-05-10T13:00:39.043Z,12.69
2023-05-10T13:03:47.170Z,12.91
2023-05-10T13:06:57.117Z,12.85
2023-05-10T13:10:06.558Z,12.87
2023-05-10T13:13:16.734Z,12.87
2023-05-10T13:16:24.920Z,13.08
2023-05-10T13:19:33.118Z,13.26
2023-05-10T13:22:41.684Z,13.43
2023-05-10T13:25:50.041Z,13.57
2023-05-10T13:28:59.938Z,13.50
2023-05-10T13:32:08.190Z,13.71
2023-05-10T13:35:16.611Z,13.56
2023-05-10T13:38:25.092Z,13.55
2023-05-10T13:41:33.373Z,13.57
2023-05-10T13:44:42.949Z,13.64
2023-05-10T13:47:51.155Z,13.76
2023-05-10T13:50:59.593Z,13.75
2023-05-10T13:54:08.279Z,13.65
2023-05-10T13:57:17.961Z,13.79
2023-05-10T14:00:28.243Z,13.79
2023-05-10T14:03:37.121Z,13.78
2023-05-10T14:06:45.596Z,13.97
2023-05-10T14:09:54.144Z,13.93
2023-05-10T14:13:02.400Z,13.91
2023-05-10T14:16:12.577Z,13.75
2023-05-10T14:19:21.902Z,13.59
2023-05-10T14:22:30.287Z,13.57
2023-05-10T14:25:41.949Z,13.50
2023-05-10T14:28:50.574Z,13.40
2023-05-10T14:32:00.346Z,13.71
2023-05-10T14:35:12.197Z,13.79
2023-05-10T14:38:21.375Z,13.35
2023-05-10T14:41:31.157Z,13.66
2023-05-10T14:44:39.430Z,13.90
2023-05-10T14:47:50.561Z,13.31
2023-05-10T14:50:58.661Z,13.65
2023-05-10T14:54:07.371Z,13.85
2023-05-10T14:57:16.227Z,13.90
2023-05-10T15:00:24.594Z,13.61
2023-05-10T15:03:34.472Z,13.69
2023-05-10T15:06:43.597Z,13.88
2023-05-10T15:09:52.600Z,13.83
2023-05-10T15:13:01.527Z,13.63
2023-05-10T15:16:09.857Z,13.31
2023-05-10T15:19:19.497Z,12.99
2023-05-10T15:22:29.246Z,13.06
2023-05-10T15:25:38.530Z,12.98
2023-05-10T15:28:47.472Z,12.90
2023-05-10T15:31:55.758Z,12.68
2023-05-10T15:35:06.474Z,12.53
2023-05-10T15:38:14.773Z,12.33
2023-05-10T15:41:23.680Z,12.36
2023-05-10T15:44:32.244Z,12.40
2023-05-10T15:47:41.421Z,12.47
2023-05-10T15:50:51.063Z,12.34
2023-05-10T15:54:07.295Z,12.31
2023-05-10T15:57:16.168Z,12.32
2023-05-10T16:00:24.402Z,12.24
2023-05-10T16:03:33.543Z,12.22
2023-05-10T16:06:44.877Z,12.05
2023-05-10T16:09:53.437Z,12.08
2023-05-10T16:13:03.298Z,12.03
2023-05-10T16:16:11.981Z,12.09
2023-05-10T16:19:20.838Z,12.12
2023-05-10T16:22:31.621Z,11.85
2023-05-10T16:25:40.978Z,11.82
2023-05-10T16:28:50.385Z,11.80
2023-05-10T16:32:00.146Z,11.81
2023-05-10T16:35:10.300Z,11.75
2023-05-10T16:38:21.591Z,11.70
2023-05-10T16:41:30.058Z,11.72
2023-05-10T16:44:39.366Z,11.73
2023-05-10T16:47:47.978Z,11.69
2023-05-10T16:50:56.479Z,11.68
2023-05-10T16:54:06.511Z,11.66
2023-05-10T16:57:15.134Z,11.62
2023-05-10T17:00:24.064Z,11.50
2023-05-10T17:03:32.285Z,11.52
2023-05-10T17:06:41.431Z,11.37
2023-05-10T17:09:51.965Z,11.44
2023-05-10T17:13:00.593Z,11.31
2023-05-10T17:16:09.221Z,11.11
2023-05-10T17:19:17.842Z,11.18
2023-05-10T17:22:26.470Z,11.20
2023-05-10T17:25:39.404Z,11.15
2023-05-10T17:28:48.218Z,11.03
2023-05-10T17:31:56.884Z,10.80
2023-05-10T17:35:07.514Z,10.83
2023-05-10T17:38:16.879Z,10.92
2023-05-10T17:41:26.569Z,10.84
2023-05-10T17:44:35.119Z,10.73
2023-05-10T17:47:44.237Z,10.66
2023-05-10T17:50:52.951Z,10.59
2023-05-10T17:54:02.792Z,10.61
2023-05-10T17:57:12.444Z,10.49
2023-05-10T18:00:21.387Z,10.47
2023-05-10T18:03:32.153Z,10.26
2023-05-10T18:06:42.075Z,10.29
2023-05-10T18:09:51.723Z,10.24
2023-05-10T18:13:02.588Z,10.23
2023-05-10T18:16:12.784Z,10.16
2023-05-10T18:19:22.329Z,10.12
2023-05-10T18:22:30.512Z,10.10
2023-05-10T18:25:39.054Z,10.05
2023-05-10T18:28:49.745Z,10.21
2023-05-10T18:31:59.080Z,10.16
2023-05-10T18:35:09.944Z,10.10
2023-05-10T18:38:20.035Z,10.08
2023-05-10T18:41:28.578Z,10.00
2023-05-10T18:44:38.412Z,10.03
2023-05-10T18:47:47.012Z,10.00
2023-05-10T18:50:55.578Z,9.97
2023-05-10T18:54:04.190Z,9.92
2023-05-10T18:57:13.781Z,9.98
2023-05-10T19:00:23.410Z,9.92
2023-05-10T19:03:32.067Z,10.02
2023-05-10T19:06:41.848Z,10.08
2023-05-10T19:09:50.157Z,9.96
2023-05-10T19:12:58.483Z,9.91
2023-05-10T19:16:15.156Z,9.92
2023-05-10T19:19:24.674Z,9.89
2023-05-10T19:22:45.426Z,9.88
2023-05-10T19:26:02.465Z,10.00
2023-05-10T19:29:11.150Z,9.83
2023-05-10T19:32:20.918Z,9.75
2023-05-10T19:35:29.481Z,9.76
2023-05-10T19:38:38.444Z,9.84
2023-05-10T19:41:47.805Z,9.67
2023-05-10T19:44:57.549Z,9.74
2023-05-10T19:48:08.572Z,9.75
2023-05-10T19:51:17.095Z,9.82
2023-05-10T19:54:25.527Z,9.65
2023-05-10T19:57:33.742Z,9.60
2023-05-10T20:00:42.121Z,9.57
2023-05-10T20:03:54.195Z,9.44
2023-05-10T20:07:02.575Z,9.50
2023-05-10T20:10:12.503Z,9.50
2023-05-10T20:13:20.728Z,9.53
2023-05-10T20:16:29.201Z,9.63
2023-05-10T20:19:39.028Z,9.51
2023-05-10T20:22:47.595Z,9.35
2023-05-10T20:25:56.484Z,9.41
2023-05-10T20:29:04.885Z,9.23
2023-05-10T20:32:13.235Z,9.22
2023-05-10T20:35:22.727Z,9.31
2023-05-10T20:38:30.992Z,9.25
2023-05-10T20:41:39.483Z,9.26
2023-05-10T20:44:47.815Z,9.12
2023-05-10T20:47:56.112Z,9.24
2023-05-10T20:51:05.690Z,9.19
2023-05-10T20:54:14.284Z,9.07
2023-05-10T20:57:22.462Z,9.16
2023-05-10T21:00:31.296Z,9.14
2023-05-10T21:03:39.754Z,9.15
2023-05-10T21:06:49.571Z,9.09
2023-05-10T21:09:57.985Z,9.02
2023-05-10T21:13:06.158Z,9.07
2023-05-10T21:16:14.569Z,9.17
2023-05-10T21:19:22.967Z,9.10
2023-05-10T21:22:32.402Z,9.10
2023-05-10T21:25:40.532Z,8.98
2023-05-10T21:28:48.747Z,9.03
2023-05-10T21:31:56.852Z,8.94
2023-05-10T21:35:05.473Z,9.05
2023-05-10T21:38:15.690Z,9.02
2023-05-10T21:41:24.455Z,9.04
2023-05-10T21:44:32.549Z,9.19
2023-05-10T21:47:40.623Z,9.11
2023-05-10T21:50:48.706Z,9.01
2023-05-10T21:53:58.309Z,8.92
2023-05-10T21:57:06.375Z,8.79
2023-05-10T22:00:16.401Z,8.90
2023-05-10T22:03:24.921Z,8.77
2023-05-10T22:06:33.027Z,8.78
2023-05-10T22:09:42.550Z,8.66
2023-05-10T22:12:51.661Z,8.65
2023-05-10T22:16:00.595Z,8.84
2023-05-10T22:19:08.916Z,8.78
2023-05-10T22:22:17.670Z,8.72
2023-05-10T22:25:29.319Z,8.56
2023-05-10T22:28:37.883Z,8.62
2023-05-10T22:31:46.285Z,8.47
2023-05-10T22:34:54.520Z,8.62
2023-05-10T22:38:03.241Z,8.63
2023-05-10T22:41:13.010Z,8.58
2023-05-10T22:44:21.884Z,8.57
2023-05-10T22:47:30.031Z,8.37
2023-05-10T22:50:38.589Z,8.48
2023-05-10T22:53:46.857Z,8.39
2023-05-10T22:56:57.475Z,8.37
2023-05-10T23:00:07.883Z,8.43
2023-05-10T23:03:16.230Z,8.46
2023-05-10T23:06:24.372Z,8.32
2023-05-10T23:09:32.485Z,8.19
2023-05-10T23:12:42.782Z,8.40
2023-05-10T23:15:50.918Z,8.28
2023-05-10T23:18:59.065Z,8.33
2023-05-10T23:22:07.666Z,8.41
2023-05-10T23:25:17.511Z,8.35
2023-05-10T23:28:29.385Z,8.26
2023-05-10T23:31:37.663Z,8.24
2023-05-10T23:34:46.051Z,8.20
2023-05-10T23:37:54.173Z,8.31
2023-05-10T23:41:02.410Z,8.14
2023-05-10T23:44:11.913Z,8.20
2023-05-10T23:47:20.239Z,8.33
2023-05-10T23:50:28.326Z,8.37
2023-05-10T23:53:37.570Z,8.39
2023-05-10T23:56:45.801Z,8.31
2023-05-10T23:59:55.226Z,8.30
